Sun City, Arizona
Current Conditions -  °F | °C
As of 3:47 PM on Thursday 18 Dec 2014 (Local Time) from KGEU Reporting Station
Scattered Clouds Scattered Clouds  
Wind Chill: 61°   Ceiling: Unl
Heat Index: 61°   Visibility: 20mi
Dew Point: 43°   Wind: 7mph
Humidity: 52%   Direction: 210°SSW
Pressure: 30.1"   Gusts: NA
Location:  33.6°N, 112.28°W
Report Text: KGEU 182247Z 21006KT 20SM FEW040 SCT070 SCT100 16/06 A3010
Loading
Personal Weather Stations






























Interactive Weather Map New forecast layout! Learn more

10-Day Weather Forecast

Advertisements
Track Severe Weather on mobile